Time;durP1;ratioP1;P1;durP2;ratioP2;P2;SDS_P1;SDS_P2;PMS_P1;PMS_P2;Temp;Humidity;BMP_temperature;BMP_pressure;BME280_temperature;BME280_humidity;BME280_pressure;Samples;Min_cycle;Max_cycle;Signal;HPM_P1;HPM_P2
2023/08/07 00:00:32;;;;;;;0.08;0.08;;;;;;;22.77;69.63;101118.16;5031492;28;20464;-69
2023/08/07 00:02:57;;;;;;;0.10;0.10;;;;;;;22.86;69.70;101110.06;5031804;28;20038;-69
2023/08/07 00:05:23;;;;;;;0.10;0.10;;;;;;;22.92;69.92;101120.63;5031257;28;20389;-69
2023/08/07 00:07:48;;;;;;;0.10;0.10;;;;;;;22.44;71.46;101108.25;5031275;28;20428;-69
2023/08/07 00:10:14;;;;;;;0.10;0.10;;;;;;;21.95;74.28;101108.69;5031702;28;20492;-69
2023/08/07 00:12:39;;;;;;;0.10;0.10;;;;;;;21.44;76.68;101110.38;5031341;28;20033;-69
2023/08/07 00:15:05;;;;;;;0.10;0.10;;;;;;;21.27;76.91;101115.47;5031248;28;20048;-69
2023/08/07 00:17:31;;;;;;;0.00;0.00;;;;;;;21.55;75.63;101114.59;5031043;28;20042;-69
2023/08/07 00:19:57;;;;;;;0.20;0.20;;;;;;;21.41;75.12;101117.22;5031067;28;20083;-68
2023/08/07 00:22:22;;;;;;;0.10;0.10;;;;;;;21.37;76.07;101115.34;5031590;28;20029;-68
2023/08/07 00:24:47;;;;;;;0.10;0.10;;;;;;;21.36;76.14;101121.94;5013324;28;20033;-68
2023/08/07 00:27:14;;;;;;;0.10;0.10;;;;;;;20.75;78.30;101119.75;5030845;28;20041;-68
2023/08/07 00:29:39;;;;;;;0.10;0.10;;;;;;;20.98;76.50;101112.72;5031102;28;20033;-68
2023/08/07 00:32:05;;;;;;;0.10;0.10;;;;;;;21.08;76.50;101117.31;5045205;28;20033;-69
2023/08/07 00:34:30;;;;;;;0.10;0.10;;;;;;;20.96;76.64;101114.91;5041609;28;20054;-69
2023/08/07 00:36:56;;;;;;;0.10;0.10;;;;;;;20.90;77.55;101116.06;5030688;28;20033;-68
2023/08/07 00:39:22;;;;;;;0.10;0.10;;;;;;;21.37;76.15;101113.44;5030539;28;20436;-68
2023/08/07 00:41:47;;;;;;;0.20;0.20;;;;;;;20.89;78.33;101120.72;5030842;28;20497;-69
2023/08/07 00:44:13;;;;;;;0.10;0.10;;;;;;;21.15;77.33;101115.84;5030441;28;20033;-69
2023/08/07 00:46:42;;;;;;;0.10;0.10;;;;;;;21.79;74.05;101121.72;5031442;28;20083;-69
2023/08/07 00:49:09;;;;;;;0.10;0.10;;;;;;;21.90;73.90;101116.13;5028256;28;20077;-68
2023/08/07 00:51:36;;;;;;;0.10;0.10;;;;;;;22.14;73.63;101114.97;5030840;28;20393;-69
2023/08/07 00:54:04;;;;;;;0.10;0.10;;;;;;;22.27;72.05;101113.44;5030755;28;20128;-69
2023/08/07 00:56:31;;;;;;;0.10;0.10;;;;;;;22.20;73.12;101124.75;5030837;28;20547;-69
2023/08/07 00:58:58;;;;;;;0.10;0.10;;;;;;;22.05;73.58;101130.44;5031081;28;20167;-68
2023/08/07 01:01:24;;;;;;;0.10;0.10;;;;;;;21.40;75.82;101134.75;5031039;28;20057;-68
2023/08/07 01:03:50;;;;;;;0.17;0.17;;;;;;;21.33;77.06;101134.25;5030535;28;20497;-68
2023/08/07 01:06:15;;;;;;;0.10;0.10;;;;;;;20.57;80.31;101136.00;5030535;28;20037;-68
2023/08/07 01:08:41;;;;;;;0.10;0.10;;;;;;;20.21;82.30;101140.88;5030578;28;20025;-68
2023/08/07 01:11:12;;;;;;;0.20;0.20;;;;;;;20.34;81.82;101145.72;5030379;28;20030;-69
2023/08/07 01:13:49;;;;;;;0.10;0.10;;;;;;;20.04;82.86;101171.22;5030644;28;20040;-69
2023/08/07 01:16:21;;;;;;;0.20;0.20;;;;;;;20.11;83.15;101165.44;5030107;28;20045;-69
2023/08/07 01:18:48;;;;;;;0.20;0.20;;;;;;;20.53;80.68;101154.88;5030149;28;20030;-69
2023/08/07 01:21:21;;;;;;;0.10;0.10;;;;;;;20.30;81.01;101143.84;5029830;28;20034;-68
2023/08/07 01:23:49;;;;;;;0.10;0.10;;;;;;;20.13;82.88;101161.34;5029894;28;20037;-70
2023/08/07 01:26:18;;;;;;;0.10;0.10;;;;;;;19.93;83.24;101168.81;5029848;28;20025;-71
2023/08/07 01:28:51;;;;;;;0.10;0.10;;;;;;;20.33;82.32;101154.16;5029306;28;20560;-70
2023/08/07 01:31:20;;;;;;;0.20;0.20;;;;;;;20.71;80.29;101148.75;5036507;28;20091;-70
2023/08/07 01:33:59;;;;;;;0.00;0.00;;;;;;;20.72;79.89;101158.56;5029599;28;20033;-69
2023/08/07 01:36:28;;;;;;;0.10;0.10;;;;;;;20.23;81.33;101160.50;5029623;28;20556;-68
2023/08/07 01:38:56;;;;;;;0.20;0.20;;;;;;;20.51;80.07;101161.72;5029729;28;20079;-69
2023/08/07 01:41:22;;;;;;;0.10;0.10;;;;;;;20.16;82.25;101168.16;5029410;28;20033;-69
2023/08/07 01:43:48;;;;;;;0.20;0.20;;;;;;;19.94;83.94;101159.53;5029640;28;20033;-68
2023/08/07 01:46:13;;;;;;;0.10;0.10;;;;;;;20.24;81.96;101156.69;5030131;28;20535;-68
2023/08/07 01:48:38;;;;;;;0.20;0.20;;;;;;;19.88;83.20;101157.91;5029396;28;20029;-68
2023/08/07 01:51:04;;;;;;;0.22;0.22;;;;;;;20.35;81.27;101151.97;5029329;28;20456;-68
2023/08/07 01:53:29;;;;;;;0.20;0.20;;;;;;;20.34;81.41;101147.63;5029762;28;20309;-68
2023/08/07 01:55:54;;;;;;;0.20;0.20;;;;;;;19.62;85.14;101156.34;5029339;28;20369;-68
2023/08/07 01:58:20;;;;;;;0.10;0.10;;;;;;;20.11;81.50;101146.34;5029811;28;20025;-68
2023/08/07 02:00:45;;;;;;;0.10;0.10;;;;;;;19.59;83.56;101155.03;5029182;28;20385;-68
2023/08/07 02:03:11;;;;;;;0.20;0.20;;;;;;;19.84;82.30;101156.84;5029235;28;20041;-67
2023/08/07 02:05:36;;;;;;;0.10;0.10;;;;;;;20.34;80.38;101156.66;5029106;28;20052;-67
2023/08/07 02:08:01;;;;;;;0.10;0.10;;;;;;;19.62;84.65;101159.09;5029075;28;20025;-68
2023/08/07 02:10:28;;;;;;;0.20;0.20;;;;;;;20.46;80.75;101164.47;5031436;28;20465;-68
2023/08/07 02:12:53;;;;;;;0.20;0.20;;;;;;;19.93;82.11;101166.88;5048794;28;20061;-68
2023/08/07 02:15:19;;;;;;;0.20;0.20;;;;;;;19.93;83.33;101163.38;5048825;28;20061;-68
2023/08/07 02:17:44;;;;;;;0.10;0.10;;;;;;;20.98;77.74;101151.78;5048923;28;20128;-68
2023/08/07 02:20:10;;;;;;;0.10;0.10;;;;;;;21.06;78.19;101161.31;5028934;28;20520;-70
2023/08/07 02:22:35;;;;;;;0.15;0.15;;;;;;;20.75;78.83;101162.63;5029791;28;20021;-69
2023/08/07 02:25:01;;;;;;;0.20;0.20;;;;;;;20.37;79.46;101169.72;5029014;28;20519;-69
2023/08/07 02:27:26;;;;;;;0.10;0.10;;;;;;;19.74;81.93;101171.31;5028936;28;20044;-69
2023/08/07 02:29:51;;;;;;;0.10;0.10;;;;;;;19.68;82.70;101166.97;5028895;28;20029;-69
2023/08/07 02:32:17;;;;;;;0.20;0.20;;;;;;;20.00;82.12;101161.97;5029169;28;20574;-69
2023/08/07 02:34:44;;;;;;;0.10;0.10;;;;;;;20.64;78.10;101156.44;5028759;28;20045;-68
2023/08/07 02:37:09;;;;;;;0.10;0.10;;;;;;;20.83;77.72;101151.09;5029314;28;20033;-69
2023/08/07 02:39:34;;;;;;;0.10;0.10;;;;;;;21.35;76.11;101153.94;5028753;28;20527;-69
2023/08/07 02:42:00;;;;;;;0.20;0.20;;;;;;;20.20;80.25;101155.63;5028659;28;20041;-70
2023/08/07 02:44:25;;;;;;;0.10;0.10;;;;;;;20.25;79.12;101162.94;5028378;28;20036;-70
2023/08/07 02:46:51;;;;;;;0.10;0.10;;;;;;;20.00;79.72;101159.22;5028657;28;20523;-69
2023/08/07 02:49:16;;;;;;;0.10;0.10;;;;;;;19.94;80.37;101160.34;5029175;28;20017;-68
2023/08/07 02:51:41;;;;;;;0.10;0.10;;;;;;;20.07;80.18;101150.72;5028464;28;20064;-69
2023/08/07 02:54:07;;;;;;;0.10;0.10;;;;;;;19.92;81.17;101156.25;5028893;28;20397;-68
2023/08/07 02:56:32;;;;;;;0.10;0.10;;;;;;;20.34;79.33;101151.19;5027018;28;20038;-68
2023/08/07 02:58:59;;;;;;;0.10;0.10;;;;;;;20.30;79.38;101150.13;5028724;28;20036;-68
2023/08/07 03:01:24;;;;;;;0.10;0.10;;;;;;;19.70;80.79;101151.16;5029244;28;20060;-67
2023/08/07 03:03:49;;;;;;;0.20;0.20;;;;;;;20.86;76.81;101137.69;5027032;28;20065;-67
2023/08/07 03:06:15;;;;;;;0.20;0.20;;;;;;;20.23;77.69;101146.03;5028941;28;20412;-67
2023/08/07 03:08:40;;;;;;;0.10;0.10;;;;;;;20.63;76.91;101140.31;5048532;28;20447;-68
2023/08/07 03:11:06;;;;;;;0.20;0.20;;;;;;;20.72;77.03;101136.69;5048541;28;20025;-68
2023/08/07 03:13:31;;;;;;;0.10;0.10;;;;;;;20.02;78.36;101148.84;5052571;28;20453;-69
2023/08/07 03:16:01;;;;;;;0.10;0.10;;;;;;;19.45;82.29;101139.50;5036412;28;20389;-68
2023/08/07 03:18:27;;;;;;;0.10;0.10;;;;;;;20.78;77.15;101137.47;5032410;28;20043;-68
2023/08/07 03:20:54;;;;;;;0.10;0.10;;;;;;;20.74;77.51;101128.22;5032096;28;20029;-68
2023/08/07 03:23:19;;;;;;;0.10;0.10;;;;;;;20.58;76.46;101127.53;5032255;28;20107;-67
2023/08/07 03:25:44;;;;;;;0.10;0.10;;;;;;;20.49;78.73;101131.13;5032101;28;20038;-68
2023/08/07 03:28:10;;;;;;;0.20;0.20;;;;;;;20.52;77.78;101125.13;5032671;28;20477;-68
2023/08/07 03:30:35;;;;;;;0.20;0.20;;;;;;;21.04;76.08;101118.97;5032106;28;20091;-68
2023/08/07 03:33:00;;;;;;;0.15;0.15;;;;;;;20.50;79.24;101130.06;5032245;28;20056;-69
2023/08/07 03:35:26;;;;;;;0.10;0.10;;;;;;;20.54;80.11;101128.38;5031851;28;20111;-67
2023/08/07 03:37:51;;;;;;;0.10;0.10;;;;;;;20.65;80.89;101122.56;5031821;28;20092;-67
2023/08/07 03:40:17;;;;;;;0.13;0.13;;;;;;;19.98;83.40;101125.13;5032513;28;20053;-68
2023/08/07 03:42:42;;;;;;;0.13;0.13;;;;;;;20.33;83.07;101135.06;5012871;28;20080;-67
2023/08/07 03:45:08;;;;;;;0.13;0.13;;;;;;;20.63;81.94;101130.22;5029709;28;20420;-67
2023/08/07 03:47:33;;;;;;;0.15;0.15;;;;;;;20.61;81.44;101126.97;5031895;28;20033;-67
2023/08/07 03:49:58;;;;;;;0.10;0.10;;;;;;;20.66;82.80;101128.81;5031597;28;20041;-68
2023/08/07 03:52:24;;;;;;;0.10;0.10;;;;;;;20.91;81.08;101123.97;5032124;28;20144;-68
2023/08/07 03:54:49;;;;;;;0.10;0.10;;;;;;;21.12;79.97;101123.81;5031750;28;20052;-68
2023/08/07 03:57:14;;;;;;;0.10;0.10;;;;;;;20.52;82.47;101123.19;5031728;28;20095;-68
2023/08/07 03:59:40;;;;;;;0.10;0.10;;;;;;;20.51;82.28;101134.41;5031392;28;20087;-67
2023/08/07 04:02:05;;;;;;;0.10;0.10;;;;;;;21.15;79.76;101142.41;5029452;28;20037;-68
2023/08/07 04:04:31;;;;;;;0.10;0.10;;;;;;;19.99;84.49;101148.56;5034721;28;20066;-68
2023/08/07 04:06:56;;;;;;;0.10;0.10;;;;;;;20.28;82.86;101157.75;5030346;28;20180;-68
2023/08/07 04:09:21;;;;;;;0.10;0.10;;;;;;;20.64;80.27;101150.13;5030839;28;20064;-68
2023/08/07 04:11:47;;;;;;;0.10;0.10;;;;;;;20.86;79.59;101151.34;5030309;28;20124;-67
2023/08/07 04:14:12;;;;;;;0.10;0.10;;;;;;;21.04;78.43;101149.84;5030910;28;20026;-67
2023/08/07 04:16:38;;;;;;;0.10;0.10;;;;;;;20.91;79.34;101147.75;5030253;28;20018;-68
2023/08/07 04:19:03;;;;;;;0.00;0.00;;;;;;;20.71;79.81;101159.66;5030163;28;20468;-67
2023/08/07 04:21:30;;;;;;;0.10;0.10;;;;;;;20.70;80.54;101162.66;5030991;28;20045;-68
2023/08/07 04:23:55;;;;;;;0.10;0.10;;;;;;;20.51;81.03;101175.34;5030786;28;20041;-68
2023/08/07 04:26:21;;;;;;;0.10;0.10;;;;;;;20.91;78.82;101167.69;5030976;28;20037;-68
2023/08/07 04:28:46;;;;;;;0.10;0.10;;;;;;;21.53;76.72;101171.53;5031084;28;20493;-68
2023/08/07 04:31:12;;;;;;;0.10;0.10;;;;;;;20.59;80.31;101178.31;5031526;28;20095;-68
2023/08/07 04:33:37;;;;;;;0.00;0.00;;;;;;;20.14;81.32;101184.00;5030949;28;20052;-68
2023/08/07 04:36:03;;;;;;;0.10;0.10;;;;;;;20.44;80.83;101188.53;5030179;28;20040;-69
2023/08/07 04:38:29;;;;;;;0.10;0.10;;;;;;;20.76;79.19;101184.19;5030702;28;20116;-68
2023/08/07 04:40:54;;;;;;;0.10;0.10;;;;;;;21.05;77.83;101178.00;5030609;28;20083;-68
2023/08/07 04:43:20;;;;;;;0.20;0.20;;;;;;;21.03;78.02;101181.00;5030949;28;20021;-68
2023/08/07 04:45:46;;;;;;;0.10;0.10;;;;;;;20.47;80.59;101190.66;5030774;28;20041;-69
2023/08/07 04:48:11;;;;;;;0.10;0.10;;;;;;;20.71;80.03;101189.72;5030685;28;20048;-68
2023/08/07 04:50:37;;;;;;;0.10;0.10;;;;;;;20.25;81.53;101198.44;5030753;28;20120;-68
2023/08/07 04:53:04;;;;;;;0.13;0.13;;;;;;;20.40;81.79;101196.44;5030595;28;20029;-68
2023/08/07 04:55:31;;;;;;;0.20;0.20;;;;;;;20.24;83.17;101205.00;5030956;28;20080;-68
2023/08/07 04:57:57;;;;;;;0.10;0.10;;;;;;;20.50;81.36;101207.31;5028946;28;20041;-69
2023/08/07 05:00:23;;;;;;;0.20;0.20;;;;;;;20.37;82.21;101202.47;5030205;28;20124;-69
2023/08/07 05:02:48;;;;;;;0.00;0.00;;;;;;;20.44;81.51;101211.16;5030313;28;20037;-69
2023/08/07 05:05:14;;;;;;;0.10;0.10;;;;;;;20.44;81.31;101204.91;5030233;28;20060;-69
2023/08/07 05:07:40;;;;;;;0.00;0.00;;;;;;;20.17;82.99;101207.19;5029922;28;20385;-69
2023/08/07 05:10:06;;;;;;;0.20;0.20;;;;;;;20.17;82.12;101210.72;5030095;28;20457;-68
2023/08/07 05:12:32;;;;;;;0.17;0.17;;;;;;;20.14;82.64;101219.47;5030118;28;20037;-68
2023/08/07 05:14:57;;;;;;;0.10;0.10;;;;;;;19.87;83.86;101217.09;5029969;28;20045;-69
2023/08/07 05:17:22;;;;;;;0.10;0.10;;;;;;;20.31;81.35;101219.97;5030087;28;20049;-68
2023/08/07 05:19:48;;;;;;;0.00;0.00;;;;;;;20.51;80.15;101221.78;5030070;28;20126;-69
2023/08/07 05:22:13;;;;;;;0.10;0.10;;;;;;;20.51;81.13;101228.06;5029951;28;20469;-69
2023/08/07 05:24:39;;;;;;;0.10;0.10;;;;;;;20.76;79.95;101235.28;5030077;28;20038;-69
2023/08/07 05:27:08;;;;;;;0.13;0.13;;;;;;;20.19;82.19;101235.84;5029358;28;20042;-67
2023/08/07 05:29:35;;;;;;;0.10;0.10;;;;;;;20.60;80.05;101237.28;5029359;28;20102;-69
2023/08/07 05:32:00;;;;;;;0.10;0.10;;;;;;;20.77;79.75;101247.84;5029595;28;20045;-69
2023/08/07 05:34:25;;;;;;;0.10;0.10;;;;;;;20.68;80.03;101247.63;5028979;28;20516;-68
2023/08/07 05:36:51;;;;;;;0.17;0.17;;;;;;;20.28;80.06;101247.00;5029049;28;20734;-69
2023/08/07 05:39:16;;;;;;;0.10;0.10;;;;;;;20.71;78.13;101243.53;5028685;28;20033;-69
2023/08/07 05:41:41;;;;;;;0.10;0.10;;;;;;;20.54;80.61;101259.47;5028990;28;20457;-68
2023/08/07 05:44:07;;;;;;;0.10;0.10;;;;;;;19.94;81.09;101249.56;5028854;28;20041;-68
2023/08/07 05:46:32;;;;;;;0.10;0.10;;;;;;;20.53;78.84;101263.28;5029318;28;20033;-68
2023/08/07 05:48:58;;;;;;;0.10;0.10;;;;;;;20.62;78.40;101262.41;5029066;28;20154;-68
2023/08/07 05:51:23;;;;;;;0.10;0.10;;;;;;;20.72;77.82;101264.25;5028607;28;20449;-67
2023/08/07 05:53:48;;;;;;;0.10;0.10;;;;;;;19.40;81.66;101273.88;5028036;28;20037;-68
2023/08/07 05:56:14;;;;;;;0.17;0.17;;;;;;;20.09;79.96;101277.59;5028720;28;20045;-68
2023/08/07 05:58:39;;;;;;;0.20;0.20;;;;;;;19.49;82.52;101285.91;5028156;28;20032;-69
2023/08/07 06:01:05;;;;;;;0.13;0.13;;;;;;;19.44;83.38;101296.00;5028670;28;20453;-68
2023/08/07 06:03:31;;;;;;;0.10;0.10;;;;;;;19.53;83.01;101300.63;5028594;28;20493;-73
2023/08/07 06:05:57;;;;;;;0.10;0.10;;;;;;;19.10;83.72;101299.16;5029074;28;20038;-72
2023/08/07 06:08:22;;;;;;;0.13;0.13;;;;;;;19.63;81.64;101291.59;5028991;28;20036;-70
2023/08/07 06:10:47;;;;;;;0.20;0.20;;;;;;;19.98;80.27;101308.75;5029101;28;20022;-70
2023/08/07 06:13:13;;;;;;;0.20;0.20;;;;;;;20.69;78.35;101301.16;5029401;28;20029;-71
2023/08/07 06:15:38;;;;;;;0.10;0.10;;;;;;;20.30;78.80;101310.34;5010735;28;20026;-69
2023/08/07 06:18:04;;;;;;;0.10;0.10;;;;;;;20.48;78.53;101304.28;5028775;28;20397;-70
2023/08/07 06:20:30;;;;;;;0.10;0.10;;;;;;;20.46;78.48;101311.91;5029135;28;20037;-70
2023/08/07 06:22:55;;;;;;;0.10;0.10;;;;;;;20.17;79.97;101327.28;5028988;28;20033;-72
2023/08/07 06:25:21;;;;;;;0.10;0.10;;;;;;;19.77;81.89;101319.97;5028896;28;20527;-72
2023/08/07 06:27:46;;;;;;;0.20;0.20;;;;;;;20.21;80.29;101317.44;5028583;28;20487;-70
2023/08/07 06:30:13;;;;;;;0.10;0.10;;;;;;;19.95;81.50;101325.66;5027339;28;20029;-72
2023/08/07 06:32:38;;;;;;;0.13;0.13;;;;;;;20.34;79.53;101322.34;5010423;28;20501;-70
2023/08/07 06:35:04;;;;;;;0.10;0.10;;;;;;;20.80;78.00;101327.31;5029846;28;20091;-70
2023/08/07 06:37:30;;;;;;;0.20;0.20;;;;;;;20.76;77.15;101333.63;5030033;28;20076;-69
2023/08/07 06:39:55;;;;;;;0.08;0.08;;;;;;;20.18;79.14;101343.38;5012386;28;20531;-69
2023/08/07 06:42:21;;;;;;;0.20;0.20;;;;;;;20.32;78.83;101344.44;5028852;28;20029;-71
2023/08/07 06:44:47;;;;;;;0.10;0.10;;;;;;;20.85;76.57;101337.41;5028211;28;20533;-70
2023/08/07 06:47:12;;;;;;;0.10;0.10;;;;;;;20.08;78.23;101341.47;5030320;28;20049;-69
2023/08/07 06:49:38;;;;;;;0.15;0.15;;;;;;;20.97;75.90;101341.44;5033004;28;20041;-70
2023/08/07 06:52:04;;;;;;;0.10;0.10;;;;;;;19.97;78.01;101341.75;5031118;28;20508;-70
2023/08/07 06:54:29;;;;;;;0.10;0.10;;;;;;;20.81;76.24;101342.59;5032584;28;20113;-69
2023/08/07 06:56:54;;;;;;;0.10;0.10;;;;;;;20.65;75.63;101345.69;5032865;28;20041;-69
2023/08/07 06:59:20;;;;;;;0.10;0.10;;;;;;;21.30;73.63;101345.38;5035611;28;20041;-70
2023/08/07 07:01:46;;;;;;;0.10;0.10;;;;;;;20.48;76.48;101353.41;5032616;28;20088;-69
2023/08/07 07:04:11;;;;;;;0.10;0.10;;;;;;;20.30;75.91;101360.28;5032899;28;20040;-68
2023/08/07 07:06:37;;;;;;;0.20;0.20;;;;;;;20.19;75.12;101361.38;5032494;28;20045;-69
2023/08/07 07:09:03;;;;;;;0.10;0.10;;;;;;;20.92;72.86;101360.59;5032321;28;20160;-69
2023/08/07 07:11:28;;;;;;;0.10;0.10;;;;;;;20.72;72.64;101368.06;5032137;28;20037;-68
2023/08/07 07:13:54;;;;;;;0.10;0.10;;;;;;;20.56;73.11;101361.03;5032257;28;20405;-71
2023/08/07 07:16:21;;;;;;;0.10;0.10;;;;;;;20.79;72.32;101368.59;5032855;28;20087;-69
2023/08/07 07:18:47;;;;;;;0.10;0.10;;;;;;;20.90;70.94;101372.91;5032158;28;20172;-69
2023/08/07 07:21:13;;;;;;;0.10;0.10;;;;;;;20.75;71.27;101372.97;5032039;28;20506;-67
2023/08/07 07:23:39;;;;;;;0.10;0.10;;;;;;;20.82;70.98;101379.75;5032125;28;20041;-68
2023/08/07 07:26:04;;;;;;;0.10;0.10;;;;;;;20.25;73.14;101390.31;5032136;28;20435;-69
2023/08/07 07:28:29;;;;;;;0.10;0.10;;;;;;;19.88;73.88;101390.59;5032560;28;20088;-70
2023/08/07 07:30:55;;;;;;;0.10;0.10;;;;;;;19.98;72.59;101396.06;5032286;28;20057;-70
2023/08/07 07:33:20;;;;;;;0.10;0.10;;;;;;;19.97;71.11;101412.69;5013963;28;20412;-69
2023/08/07 07:35:45;;;;;;;0.20;0.20;;;;;;;19.90;70.81;101412.16;5031833;28;20087;-69
2023/08/07 07:38:11;;;;;;;0.10;0.10;;;;;;;19.65;73.10;101412.13;5013853;28;20038;-69
2023/08/07 07:40:37;;;;;;;0.10;0.10;;;;;;;19.04;76.01;101416.59;5032188;28;20500;-69
2023/08/07 07:43:02;;;;;;;0.10;0.10;;;;;;;19.37;75.38;101412.63;5031549;28;20209;-67
2023/08/07 07:45:28;;;;;;;0.10;0.10;;;;;;;19.87;73.81;101416.22;5031695;28;20044;-67
2023/08/07 07:47:53;;;;;;;0.15;0.15;;;;;;;20.30;72.38;101414.06;5031612;28;20529;-68
2023/08/07 07:50:19;;;;;;;0.20;0.20;;;;;;;20.21;73.26;101415.69;5031651;28;20033;-69
2023/08/07 07:52:44;;;;;;;0.10;0.10;;;;;;;20.14;73.80;101413.22;5031568;28;20064;-68
2023/08/07 07:55:10;;;;;;;0.10;0.10;;;;;;;20.55;72.57;101414.81;5032240;28;20432;-68
2023/08/07 07:57:35;;;;;;;0.10;0.10;;;;;;;20.17;72.82;101418.13;5030807;28;20046;-68
2023/08/07 08:00:02;;;;;;;0.20;0.20;;;;;;;20.35;72.81;101416.78;5031382;28;20195;-69
2023/08/07 08:02:27;;;;;;;0.10;0.10;;;;;;;19.96;72.67;101425.53;5031497;28;20053;-69
2023/08/07 08:04:53;;;;;;;0.10;0.10;;;;;;;20.35;70.18;101416.78;5031467;28;20323;-68
2023/08/07 08:07:18;;;;;;;0.10;0.10;;;;;;;20.63;68.77;101427.91;5031822;28;20083;-67
2023/08/07 08:09:44;;;;;;;0.10;0.10;;;;;;;21.16;68.63;101420.06;5031407;28;20088;-69
2023/08/07 08:12:10;;;;;;;0.10;0.10;;;;;;;21.55;66.79;101421.75;5031252;28;20030;-70
2023/08/07 08:14:35;;;;;;;0.10;0.10;;;;;;;20.73;68.02;101424.34;5031208;28;20033;-69
2023/08/07 08:17:01;;;;;;;0.13;0.13;;;;;;;20.45;66.18;101433.13;5031016;28;20030;-69
2023/08/07 08:19:26;;;;;;;0.10;0.10;;;;;;;20.57;64.07;101423.56;5031328;28;20025;-70
2023/08/07 08:21:52;;;;;;;0.10;0.10;;;;;;;21.12;64.22;101440.88;5031042;28;20523;-69
2023/08/07 08:24:18;;;;;;;0.10;0.10;;;;;;;20.04;63.93;101449.53;5042804;28;20451;-70
2023/08/07 08:26:43;;;;;;;0.10;0.10;;;;;;;20.47;66.59;101437.22;5051190;28;20040;-69
2023/08/07 08:29:09;;;;;;;0.10;0.10;;;;;;;20.85;64.90;101439.28;5050960;28;20489;-70
2023/08/07 08:31:34;;;;;;;0.10;0.10;;;;;;;20.71;65.64;101456.56;5025201;28;20025;-70
2023/08/07 08:34:00;;;;;;;0.10;0.10;;;;;;;21.83;63.53;101445.69;5019766;28;20041;-68
2023/08/07 08:36:25;;;;;;;0.10;0.10;;;;;;;21.54;65.39;101452.16;5020103;28;20140;-69
2023/08/07 08:38:51;;;;;;;0.10;0.10;;;;;;;20.63;66.43;101444.31;5011573;28;20524;-70
2023/08/07 08:41:17;;;;;;;0.10;0.10;;;;;;;19.98;65.47;101464.25;5019371;28;20038;-71
2023/08/07 08:43:45;;;;;;;0.10;0.10;;;;;;;20.46;64.05;101460.16;5023878;28;20059;-71
2023/08/07 08:46:11;;;;;;;0.05;0.05;;;;;;;20.37;63.58;101470.00;5020155;28;20029;-71
2023/08/07 08:48:38;;;;;;;0.10;0.10;;;;;;;20.79;63.20;101456.81;5021124;28;20045;-70
2023/08/07 08:51:04;;;;;;;0.10;0.10;;;;;;;20.96;62.27;101464.69;5020033;28;20123;-71
2023/08/07 08:53:31;;;;;;;0.10;0.10;;;;;;;21.34;60.59;101461.28;5022059;28;20484;-70
2023/08/07 08:55:57;;;;;;;0.10;0.10;;;;;;;21.11;61.22;101456.44;5021079;28;20377;-71
2023/08/07 08:58:23;;;;;;;0.10;0.10;;;;;;;21.79;59.64;101471.94;5020349;28;20017;-71
2023/08/07 09:00:49;;;;;;;0.10;0.10;;;;;;;21.28;59.62;101450.63;5024189;28;20041;-71
2023/08/07 09:03:15;;;;;;;0.10;0.10;;;;;;;21.55;57.78;101462.78;5021077;28;20401;-71
2023/08/07 09:05:41;;;;;;;0.10;0.10;;;;;;;21.56;59.61;101460.88;5019524;28;20053;-71
2023/08/07 09:08:08;;;;;;;0.10;0.10;;;;;;;21.25;58.85;101465.69;5018324;28;20493;-72
2023/08/07 09:10:35;;;;;;;0.10;0.10;;;;;;;21.05;60.97;101464.97;5020602;28;20065;-70
2023/08/07 09:13:04;;;;;;;0.10;0.10;;;;;;;20.50;57.85;101485.03;5021007;28;20038;-70
2023/08/07 09:15:31;;;;;;;0.10;0.10;;;;;;;20.43;60.39;101476.28;5022833;28;20034;-72
2023/08/07 09:17:58;;;;;;;0.00;0.00;;;;;;;21.30;58.30;101498.47;5020752;28;20034;-71
2023/08/07 09:20:25;;;;;;;0.10;0.10;;;;;;;21.70;55.12;101489.22;5019382;28;20107;-72
2023/08/07 09:22:51;;;;;;;0.10;0.10;;;;;;;21.41;55.23;101482.81;5019061;28;20025;-70
2023/08/07 09:25:33;;;;;;;0.10;0.10;;;;;;;22.05;55.27;101493.69;5021859;28;20057;-71
2023/08/07 09:28:04;;;;;;;0.10;0.10;;;;;;;21.30;54.95;101494.91;5018595;28;20057;-70
2023/08/07 09:30:29;;;;;;;;;;;;;;;21.38;52.50;101492.44;5019791;28;20141;-70
2023/08/07 09:32:59;;;;;;;0.10;0.10;;;;;;;20.96;54.38;101497.47;5020432;28;20407;-71
2023/08/07 09:35:24;;;;;;;0.10;0.10;;;;;;;21.39;51.92;101506.91;5018961;28;20048;-72
2023/08/07 09:37:50;;;;;;;0.10;0.10;;;;;;;21.53;52.72;101497.81;5018917;28;20238;-72
2023/08/07 09:40:17;;;;;;;0.10;0.10;;;;;;;21.93;50.92;101494.03;5021022;28;20436;-71
2023/08/07 09:42:43;;;;;;;0.08;0.08;;;;;;;21.02;51.91;101499.13;5018927;28;20029;-70
2023/08/07 09:45:20;;;;;;;0.10;0.10;;;;;;;21.95;50.27;101491.00;5022898;28;20472;-72
2023/08/07 09:47:46;;;;;;;0.00;0.00;;;;;;;21.72;49.81;101497.97;5020434;28;20544;-71
2023/08/07 09:50:18;;;;;;;0.08;0.08;;;;;;;22.25;51.81;101502.53;5028644;28;20037;-72
2023/08/07 09:52:47;;;;;;;0.00;0.00;;;;;;;22.79;50.29;101494.13;5027483;28;20692;-72
2023/08/07 09:55:15;;;;;;;0.10;0.10;;;;;;;22.67;50.46;101504.66;5029278;28;20044;-76
2023/08/07 09:57:42;;;;;;;0.10;0.10;;;;;;;22.87;48.77;101495.41;5028788;28;20042;-73
2023/08/07 10:00:11;;;;;;;0.10;0.10;;;;;;;22.30;50.77;101518.94;5030167;28;20504;-74
2023/08/07 10:02:38;;;;;;;0.10;0.10;;;;;;;22.98;50.33;101514.19;5026130;28;20111;-73
2023/08/07 10:05:06;;;;;;;0.00;0.00;;;;;;;21.81;52.05;101529.16;5028809;28;20033;-74
2023/08/07 10:07:32;;;;;;;0.10;0.10;;;;;;;21.77;53.99;101548.03;5028187;28;20465;-75
2023/08/07 10:09:59;;;;;;;0.03;0.03;;;;;;;20.69;55.77;101537.97;5027892;28;20129;-72
2023/08/07 10:12:26;;;;;;;0.10;0.10;;;;;;;21.72;55.04;101548.03;5028779;28;20404;-73
2023/08/07 10:14:53;;;;;;;0.10;0.10;;;;;;;20.74;58.00;101541.50;5028838;28;20037;-72
2023/08/07 10:17:19;;;;;;;0.10;0.10;;;;;;;21.46;56.77;101546.50;5028451;28;20110;-72
2023/08/07 10:19:44;;;;;;;0.10;0.10;;;;;;;21.23;57.51;101562.75;5028848;28;20052;-72
2023/08/07 10:22:11;;;;;;;0.10;0.10;;;;;;;21.19;55.75;101557.00;5028832;28;20064;-73
2023/08/07 10:24:42;;;;;;;0.10;0.10;;;;;;;20.90;56.06;101551.31;5025559;28;20037;-73
2023/08/07 10:27:09;;;;;;;0.10;0.10;;;;;;;21.15;55.41;101561.41;5028481;28;20026;-72
2023/08/07 10:29:36;;;;;;;0.20;0.20;;;;;;;21.50;56.26;101555.00;5028187;28;20033;-72
2023/08/07 10:32:07;;;;;;;0.10;0.10;;;;;;;21.52;57.63;101559.06;5028689;28;20448;-73
2023/08/07 10:34:37;;;;;;;0.10;0.10;;;;;;;22.24;55.73;101558.41;5028457;28;20049;-70
2023/08/07 10:37:06;;;;;;;0.10;0.10;;;;;;;22.14;55.37;101565.88;5028167;28;20026;-66
2023/08/07 10:39:32;;;;;;;0.10;0.10;;;;;;;21.47;57.05;101566.47;5028819;28;20072;-68
2023/08/07 10:41:57;;;;;;;0.00;0.00;;;;;;;20.92;57.75;101571.00;5028612;28;20072;-68
2023/08/07 10:44:25;;;;;;;0.10;0.10;;;;;;;21.71;56.44;101573.78;5028299;28;20029;-68
2023/08/07 10:46:53;;;;;;;0.10;0.10;;;;;;;21.26;58.08;101568.50;5028662;28;20115;-67
2023/08/07 10:49:38;;;;;;;0.00;0.00;;;;;;;21.71;58.96;101562.84;5029165;28;20041;-67
2023/08/07 10:52:14;;;;;;;0.10;0.10;;;;;;;21.42;58.77;101570.09;5028509;28;20042;-68
2023/08/07 10:54:49;;;;;;;0.10;0.10;;;;;;;21.93;56.79;101564.38;5013529;28;20128;-66
2023/08/07 10:57:17;;;;;;;0.10;0.10;;;;;;;22.28;57.08;101573.19;5028555;28;20048;-67
2023/08/07 11:00:04;;;;;;;0.10;0.10;;;;;;;22.63;55.96;101563.88;5028441;28;20030;-69
2023/08/07 11:02:31;;;;;;;0.10;0.10;;;;;;;22.86;56.32;101576.81;5029043;28;20515;-68
2023/08/07 11:04:56;;;;;;;0.00;0.00;;;;;;;24.06;52.94;101554.53;5019410;28;20064;-69
2023/08/07 11:07:30;;;;;;;0.10;0.10;;;;;;;24.01;52.21;101571.06;5019067;28;20021;-68
2023/08/07 11:09:56;;;;;;;0.10;0.10;;;;;;;23.22;52.46;101569.03;5023717;28;20068;-68
2023/08/07 11:12:26;;;;;;;0.10;0.10;;;;;;;23.05;50.03;101574.16;5012176;28;20095;-67
2023/08/07 11:14:52;;;;;;;0.00;0.00;;;;;;;23.64;49.42;101571.84;5024738;28;20114;-66
2023/08/07 11:17:19;;;;;;;0.10;0.10;;;;;;;23.34;48.75;101577.72;5023704;28;20037;-66
2023/08/07 11:19:47;;;;;;;0.00;0.00;;;;;;;23.38;48.82;101576.84;5024073;28;20025;-67